sensor_id;sensor_type;location;lat;lon;timestamp;pressure;altitude;pressure_sealevel;temperature;humidity
3096;BME280;1558;42.700;23.360;2022-11-03T00:01:12;95830.81;;;16.75;52.11
3096;BME280;1558;42.700;23.360;2022-11-03T00:03:40;95827.66;;;16.73;51.90
3096;BME280;1558;42.700;23.360;2022-11-03T00:06:08;95825.19;;;16.68;52.14
3096;BME280;1558;42.700;23.360;2022-11-03T00:08:39;95830.19;;;16.66;52.59
3096;BME280;1558;42.700;23.360;2022-11-03T00:11:09;95835.22;;;16.64;52.45
3096;BME280;1558;42.700;23.360;2022-11-03T00:13:38;95830.03;;;16.59;52.46
3096;BME280;1558;42.700;23.360;2022-11-03T00:16:08;95831.47;;;16.53;52.76
3096;BME280;1558;42.700;23.360;2022-11-03T00:18:36;95801.19;;;16.39;52.91
3096;BME280;1558;42.700;23.360;2022-11-03T00:21:06;95835.06;;;16.57;53.31
3096;BME280;1558;42.700;23.360;2022-11-03T00:23:37;95839.38;;;16.58;53.59
3096;BME280;1558;42.700;23.360;2022-11-03T00:26:08;95836.66;;;16.58;53.52
3096;BME280;1558;42.700;23.360;2022-11-03T00:28:37;95841.66;;;16.56;53.75
3096;BME280;1558;42.700;23.360;2022-11-03T00:31:06;95831.91;;;16.55;53.99
3096;BME280;1558;42.700;23.360;2022-11-03T00:33:36;95825.75;;;16.58;54.30
3096;BME280;1558;42.700;23.360;2022-11-03T00:36:05;95827.25;;;16.56;54.20
3096;BME280;1558;42.700;23.360;2022-11-03T00:38:33;95829.44;;;16.50;54.28
3096;BME280;1558;42.700;23.360;2022-11-03T00:41:05;95836.50;;;16.51;54.52
3096;BME280;1558;42.700;23.360;2022-11-03T00:43:34;95832.59;;;16.52;54.81
3096;BME280;1558;42.700;23.360;2022-11-03T00:46:02;95819.53;;;16.42;54.43
3096;BME280;1558;42.700;23.360;2022-11-03T00:48:32;95839.88;;;16.48;54.88
3096;BME280;1558;42.700;23.360;2022-11-03T00:51:05;95836.31;;;16.44;54.84
3096;BME280;1558;42.700;23.360;2022-11-03T00:53:36;95823.19;;;16.31;55.07
3096;BME280;1558;42.700;23.360;2022-11-03T00:56:07;95835.44;;;16.40;55.17
3096;BME280;1558;42.700;23.360;2022-11-03T00:58:36;95835.72;;;16.35;55.12
3096;BME280;1558;42.700;23.360;2022-11-03T01:01:06;95840.00;;;16.36;55.09
3096;BME280;1558;42.700;23.360;2022-11-03T01:03:36;95715.75;;;15.58;55.19
3096;BME280;1558;42.700;23.360;2022-11-03T01:06:05;95836.78;;;16.31;55.33
3096;BME280;1558;42.700;23.360;2022-11-03T01:08:51;95852.97;;;16.23;55.83
3096;BME280;1558;42.700;23.360;2022-11-03T01:11:22;95842.75;;;16.20;56.11
3096;BME280;1558;42.700;23.360;2022-11-03T01:14:08;95844.34;;;16.21;56.78
3096;BME280;1558;42.700;23.360;2022-11-03T01:16:37;95849.78;;;16.21;57.07
3096;BME280;1558;42.700;23.360;2022-11-03T01:19:04;95841.88;;;16.16;58.15
3096;BME280;1558;42.700;23.360;2022-11-03T01:21:33;95842.66;;;16.17;58.74
3096;BME280;1558;42.700;23.360;2022-11-03T01:24:01;95837.97;;;16.14;59.74
3096;BME280;1558;42.700;23.360;2022-11-03T01:26:30;95834.44;;;16.13;60.60
3096;BME280;1558;42.700;23.360;2022-11-03T01:28:59;95840.22;;;16.12;61.00
3096;BME280;1558;42.700;23.360;2022-11-03T01:31:27;95840.56;;;16.10;62.01
3096;BME280;1558;42.700;23.360;2022-11-03T01:33:56;95824.09;;;16.03;62.34
3096;BME280;1558;42.700;23.360;2022-11-03T01:36:24;95829.53;;;16.03;62.52
3096;BME280;1558;42.700;23.360;2022-11-03T01:38:53;95831.44;;;16.03;63.45
3096;BME280;1558;42.700;23.360;2022-11-03T01:41:23;95848.66;;;16.07;63.40
3096;BME280;1558;42.700;23.360;2022-11-03T01:44:24;95838.91;;;16.06;63.90
3096;BME280;1558;42.700;23.360;2022-11-03T01:46:56;95839.63;;;16.03;64.53
3096;BME280;1558;42.700;23.360;2022-11-03T01:49:31;95844.19;;;15.99;64.65
3096;BME280;1558;42.700;23.360;2022-11-03T01:52:03;95852.34;;;15.99;65.32
3096;BME280;1558;42.700;23.360;2022-11-03T01:54:34;95851.13;;;15.96;65.51
3096;BME280;1558;42.700;23.360;2022-11-03T01:57:05;95840.88;;;15.90;65.67
3096;BME280;1558;42.700;23.360;2022-11-03T01:59:37;95813.84;;;15.66;65.96
3096;BME280;1558;42.700;23.360;2022-11-03T02:02:06;95811.13;;;15.66;66.23
3096;BME280;1558;42.700;23.360;2022-11-03T02:04:34;95850.84;;;15.86;66.60
3096;BME280;1558;42.700;23.360;2022-11-03T02:07:10;95845.97;;;15.76;67.19
3096;BME280;1558;42.700;23.360;2022-11-03T02:09:41;95850.25;;;15.77;66.95
3096;BME280;1558;42.700;23.360;2022-11-03T02:12:09;95850.06;;;15.70;68.14
3096;BME280;1558;42.700;23.360;2022-11-03T02:14:42;95853.03;;;15.65;67.85
3096;BME280;1558;42.700;23.360;2022-11-03T02:17:12;95846.72;;;15.61;68.27
3096;BME280;1558;42.700;23.360;2022-11-03T02:19:44;95718.41;;;14.80;68.42
3096;BME280;1558;42.700;23.360;2022-11-03T02:22:31;95850.50;;;15.56;68.44
3096;BME280;1558;42.700;23.360;2022-11-03T02:25:11;95851.97;;;15.53;69.33
3096;BME280;1558;42.700;23.360;2022-11-03T02:27:42;95842.50;;;15.47;69.57
3096;BME280;1558;42.700;23.360;2022-11-03T02:30:10;95850.88;;;15.42;69.60
3096;BME280;1558;42.700;23.360;2022-11-03T02:32:44;95844.91;;;15.37;70.00
3096;BME280;1558;42.700;23.360;2022-11-03T02:35:20;95843.41;;;15.39;70.01
3096;BME280;1558;42.700;23.360;2022-11-03T02:37:53;95844.56;;;15.38;70.38
3096;BME280;1558;42.700;23.360;2022-11-03T02:40:26;95824.50;;;15.15;70.20
3096;BME280;1558;42.700;23.360;2022-11-03T02:42:58;95853.66;;;15.30;70.56
3096;BME280;1558;42.700;23.360;2022-11-03T02:45:29;95847.44;;;15.30;70.76
3096;BME280;1558;42.700;23.360;2022-11-03T02:47:59;95844.72;;;15.30;71.02
3096;BME280;1558;42.700;23.360;2022-11-03T02:50:30;95854.09;;;15.32;71.40
3096;BME280;1558;42.700;23.360;2022-11-03T02:52:59;95852.06;;;15.29;71.51
3096;BME280;1558;42.700;23.360;2022-11-03T02:55:33;95852.44;;;15.28;71.74
3096;BME280;1558;42.700;23.360;2022-11-03T02:58:08;95844.34;;;15.31;71.70
3096;BME280;1558;42.700;23.360;2022-11-03T03:00:44;95823.63;;;15.11;71.81
3096;BME280;1558;42.700;23.360;2022-11-03T03:03:18;95848.22;;;15.30;71.65
3096;BME280;1558;42.700;23.360;2022-11-03T03:05:49;95850.16;;;15.30;71.79
3096;BME280;1558;42.700;23.360;2022-11-03T03:08:20;95844.72;;;15.30;71.61
3096;BME280;1558;42.700;23.360;2022-11-03T03:10:50;95854.53;;;15.34;71.45
3096;BME280;1558;42.700;23.360;2022-11-03T03:13:22;95820.91;;;15.11;70.98
3096;BME280;1558;42.700;23.360;2022-11-03T03:16:00;95856.13;;;15.35;70.90
3096;BME280;1558;42.700;23.360;2022-11-03T03:18:39;95855.66;;;15.33;70.84
3096;BME280;1558;42.700;23.360;2022-11-03T03:21:12;95853.75;;;15.34;70.71
3096;BME280;1558;42.700;23.360;2022-11-03T03:23:44;95837.16;;;15.23;70.81
3096;BME280;1558;42.700;23.360;2022-11-03T03:26:19;95861.09;;;15.33;71.30
3096;BME280;1558;42.700;23.360;2022-11-03T03:28:54;95845.50;;;15.30;71.49
3096;BME280;1558;42.700;23.360;2022-11-03T03:31:25;95847.31;;;15.26;71.20
3096;BME280;1558;42.700;23.360;2022-11-03T03:33:55;95857.44;;;15.26;71.35
3096;BME280;1558;42.700;23.360;2022-11-03T03:36:31;95856.88;;;15.20;71.68
3096;BME280;1558;42.700;23.360;2022-11-03T03:39:03;95853.16;;;15.13;71.93
3096;BME280;1558;42.700;23.360;2022-11-03T03:41:35;95840.53;;;15.05;72.63
3096;BME280;1558;42.700;23.360;2022-11-03T03:44:07;95856.06;;;15.04;73.09
3096;BME280;1558;42.700;23.360;2022-11-03T03:46:40;95850.63;;;15.04;73.25
3096;BME280;1558;42.700;23.360;2022-11-03T03:49:09;95860.38;;;14.93;73.76
3096;BME280;1558;42.700;23.360;2022-11-03T03:51:37;95853.63;;;14.87;74.09
3096;BME280;1558;42.700;23.360;2022-11-03T03:54:05;95857.69;;;14.81;74.37
3096;BME280;1558;42.700;23.360;2022-11-03T03:56:37;95853.28;;;14.76;74.49
3096;BME280;1558;42.700;23.360;2022-11-03T03:59:09;95852.84;;;14.74;75.49
3096;BME280;1558;42.700;23.360;2022-11-03T04:01:37;95848.91;;;14.72;75.29
3096;BME280;1558;42.700;23.360;2022-11-03T04:04:05;95853.31;;;14.64;75.62
3096;BME280;1558;42.700;23.360;2022-11-03T04:06:33;95840.13;;;14.51;76.46
3096;BME280;1558;42.700;23.360;2022-11-03T04:09:01;95868.41;;;14.62;76.54
3096;BME280;1558;42.700;23.360;2022-11-03T04:11:28;95867.72;;;14.53;76.92
3096;BME280;1558;42.700;23.360;2022-11-03T04:14:15;95861.84;;;14.39;77.04
3096;BME280;1558;42.700;23.360;2022-11-03T04:17:01;95867.28;;;14.39;77.80
3096;BME280;1558;42.700;23.360;2022-11-03T04:19:46;95857.81;;;14.33;77.91
3096;BME280;1558;42.700;23.360;2022-11-03T04:22:32;95862.31;;;14.29;78.63
3096;BME280;1558;42.700;23.360;2022-11-03T04:25:00;95858.25;;;14.22;79.15
3096;BME280;1558;42.700;23.360;2022-11-03T04:27:31;95858.59;;;14.21;79.39
3096;BME280;1558;42.700;23.360;2022-11-03T04:30:09;95864.91;;;14.13;79.93
3096;BME280;1558;42.700;23.360;2022-11-03T04:32:40;95852.38;;;14.08;80.64
3096;BME280;1558;42.700;23.360;2022-11-03T04:35:16;95849.78;;;14.00;81.23
3096;BME280;1558;42.700;23.360;2022-11-03T04:37:44;95860.41;;;13.93;81.72
3096;BME280;1558;42.700;23.360;2022-11-03T04:40:15;95861.88;;;13.90;82.26
3096;BME280;1558;42.700;23.360;2022-11-03T04:42:44;95857.47;;;13.86;83.27
3096;BME280;1558;42.700;23.360;2022-11-03T04:45:27;95855.41;;;13.83;83.03
3096;BME280;1558;42.700;23.360;2022-11-03T04:47:57;95854.50;;;13.79;83.56
3096;BME280;1558;42.700;23.360;2022-11-03T04:50:25;95866.34;;;13.74;84.64
3096;BME280;1558;42.700;23.360;2022-11-03T04:52:54;95854.38;;;13.75;84.23
3096;BME280;1558;42.700;23.360;2022-11-03T04:55:23;95863.41;;;13.67;84.31
3096;BME280;1558;42.700;23.360;2022-11-03T04:57:55;95859.69;;;13.72;85.13
3096;BME280;1558;42.700;23.360;2022-11-03T05:00:25;95857.31;;;13.70;85.07
3096;BME280;1558;42.700;23.360;2022-11-03T05:02:53;95865.22;;;13.75;86.56
3096;BME280;1558;42.700;23.360;2022-11-03T05:05:24;95854.75;;;13.86;85.86
3096;BME280;1558;42.700;23.360;2022-11-03T05:07:54;95861.50;;;13.80;85.35
3096;BME280;1558;42.700;23.360;2022-11-03T05:10:24;95854.81;;;13.65;85.11
3096;BME280;1558;42.700;23.360;2022-11-03T05:12:53;95817.75;;;13.33;85.95
3096;BME280;1558;42.700;23.360;2022-11-03T05:15:31;95878.34;;;13.73;86.26
3096;BME280;1558;42.700;23.360;2022-11-03T05:18:11;95873.00;;;13.77;86.62
3096;BME280;1558;42.700;23.360;2022-11-03T05:20:43;95870.22;;;13.85;85.54
3096;BME280;1558;42.700;23.360;2022-11-03T05:23:12;95873.97;;;13.93;85.44
3096;BME280;1558;42.700;23.360;2022-11-03T05:25:42;95878.91;;;14.03;85.57
3096;BME280;1558;42.700;23.360;2022-11-03T05:28:20;95880.75;;;14.23;83.56
3096;BME280;1558;42.700;23.360;2022-11-03T05:30:51;95886.03;;;13.95;81.24
3096;BME280;1558;42.700;23.360;2022-11-03T05:33:26;95888.75;;;13.95;80.56
3096;BME280;1558;42.700;23.360;2022-11-03T05:35:56;95897.22;;;13.82;78.89
3096;BME280;1558;42.700;23.360;2022-11-03T05:38:28;95883.31;;;13.83;78.13
3096;BME280;1558;42.700;23.360;2022-11-03T05:40:57;95897.91;;;14.03;77.74
3096;BME280;1558;42.700;23.360;2022-11-03T05:43:27;95842.41;;;13.64;76.77
3096;BME280;1558;42.700;23.360;2022-11-03T05:45:59;95903.44;;;13.94;76.96
3096;BME280;1558;42.700;23.360;2022-11-03T05:48:31;95861.84;;;13.66;76.57
3096;BME280;1558;42.700;23.360;2022-11-03T05:51:02;95857.53;;;13.77;76.41
3096;BME280;1558;42.700;23.360;2022-11-03T05:53:38;95916.94;;;14.39;75.47
3096;BME280;1558;42.700;23.360;2022-11-03T05:56:12;95913.19;;;14.56;74.40
3096;BME280;1558;42.700;23.360;2022-11-03T05:58:43;95921.34;;;14.56;72.71
3096;BME280;1558;42.700;23.360;2022-11-03T06:01:18;95923.16;;;14.52;73.18
3096;BME280;1558;42.700;23.360;2022-11-03T06:03:47;95924.50;;;14.58;72.66
3096;BME280;1558;42.700;23.360;2022-11-03T06:06:18;95927.75;;;14.87;72.12
3096;BME280;1558;42.700;23.360;2022-11-03T06:08:47;95879.97;;;14.47;71.27
3096;BME280;1558;42.700;23.360;2022-11-03T06:11:23;95937.34;;;14.97;71.98
3096;BME280;1558;42.700;23.360;2022-11-03T06:13:54;95930.44;;;15.00;71.67
3096;BME280;1558;42.700;23.360;2022-11-03T06:16:40;95935.00;;;15.23;71.60
3096;BME280;1558;42.700;23.360;2022-11-03T06:19:25;95865.75;;;15.05;70.67
3096;BME280;1558;42.700;23.360;2022-11-03T06:21:57;95940.97;;;15.69;69.95
3096;BME280;1558;42.700;23.360;2022-11-03T06:24:28;95941.22;;;15.64;69.55
3096;BME280;1558;42.700;23.360;2022-11-03T06:26:57;95938.63;;;15.98;69.16
3096;BME280;1558;42.700;23.360;2022-11-03T06:29:26;95938.47;;;16.38;67.27
3096;BME280;1558;42.700;23.360;2022-11-03T06:31:58;95950.75;;;16.48;66.15
3096;BME280;1558;42.700;23.360;2022-11-03T06:34:36;95955.44;;;16.47;65.44
3096;BME280;1558;42.700;23.360;2022-11-03T06:37:19;95947.31;;;16.82;65.06
3096;BME280;1558;42.700;23.360;2022-11-03T06:39:48;95949.41;;;16.88;64.20
3096;BME280;1558;42.700;23.360;2022-11-03T06:42:20;95951.28;;;16.84;64.16
3096;BME280;1558;42.700;23.360;2022-11-03T06:44:54;95942.66;;;17.17;63.59
3096;BME280;1558;42.700;23.360;2022-11-03T06:47:25;95956.78;;;16.88;63.61
3096;BME280;1558;42.700;23.360;2022-11-03T06:49:55;95954.78;;;16.85;64.66
3096;BME280;1558;42.700;23.360;2022-11-03T06:52:26;95944.00;;;17.08;63.78
3096;BME280;1558;42.700;23.360;2022-11-03T06:58:02;95953.78;;;17.28;63.46
3096;BME280;1558;42.700;23.360;2022-11-03T07:00:31;95954.84;;;17.04;64.53
3096;BME280;1558;42.700;23.360;2022-11-03T07:03:06;95955.22;;;17.41;64.07
3096;BME280;1558;42.700;23.360;2022-11-03T07:05:36;95950.00;;;18.12;63.13
3096;BME280;1558;42.700;23.360;2022-11-03T07:08:15;95950.13;;;17.97;63.61
3096;BME280;1558;42.700;23.360;2022-11-03T07:10:45;95945.59;;;18.50;63.33
3096;BME280;1558;42.700;23.360;2022-11-03T07:13:17;95932.41;;;18.33;63.43
3096;BME280;1558;42.700;23.360;2022-11-03T07:15:46;95942.97;;;18.57;63.58
3096;BME280;1558;42.700;23.360;2022-11-03T07:18:19;95881.28;;;18.82;62.70
3096;BME280;1558;42.700;23.360;2022-11-03T07:20:49;95928.84;;;19.33;61.64
3096;BME280;1558;42.700;23.360;2022-11-03T07:23:21;95934.81;;;19.13;61.05
3096;BME280;1558;42.700;23.360;2022-11-03T07:25:51;95905.16;;;18.85;61.51
3096;BME280;1558;42.700;23.360;2022-11-03T07:28:22;95934.84;;;19.16;61.06
3096;BME280;1558;42.700;23.360;2022-11-03T07:30:51;95888.97;;;18.73;60.90
3096;BME280;1558;42.700;23.360;2022-11-03T07:33:23;95938.19;;;19.58;60.84
3096;BME280;1558;42.700;23.360;2022-11-03T07:35:53;95931.50;;;19.89;59.17
3096;BME280;1558;42.700;23.360;2022-11-03T07:38:43;95937.66;;;19.83;59.63
3096;BME280;1558;42.700;23.360;2022-11-03T07:41:16;95748.59;;;18.58;59.66
3096;BME280;1558;42.700;23.360;2022-11-03T07:43:48;95939.88;;;20.07;59.20
3096;BME280;1558;42.700;23.360;2022-11-03T07:46:19;95937.78;;;20.30;58.94
3096;BME280;1558;42.700;23.360;2022-11-03T07:48:51;95945.28;;;20.37;58.22
3096;BME280;1558;42.700;23.360;2022-11-03T07:51:22;95940.16;;;20.32;57.90
3096;BME280;1558;42.700;23.360;2022-11-03T07:53:52;95938.84;;;20.62;57.89
3096;BME280;1558;42.700;23.360;2022-11-03T07:56:23;95931.13;;;20.78;57.38
3096;BME280;1558;42.700;23.360;2022-11-03T07:58:56;95916.50;;;21.15;56.57
3096;BME280;1558;42.700;23.360;2022-11-03T08:01:27;95924.34;;;21.16;56.09
3096;BME280;1558;42.700;23.360;2022-11-03T08:04:00;95916.19;;;21.27;55.58
3096;BME280;1558;42.700;23.360;2022-11-03T08:06:30;95914.00;;;20.96;55.54
3096;BME280;1558;42.700;23.360;2022-11-03T08:08:58;95918.81;;;21.06;55.81
3096;BME280;1558;42.700;23.360;2022-11-03T08:11:26;95917.25;;;21.12;55.05
3096;BME280;1558;42.700;23.360;2022-11-03T08:13:55;95843.91;;;20.40;55.32
3096;BME280;1558;42.700;23.360;2022-11-03T08:16:23;95904.00;;;20.63;56.23
3096;BME280;1558;42.700;23.360;2022-11-03T08:18:51;95894.00;;;20.91;55.78
3096;BME280;1558;42.700;23.360;2022-11-03T08:21:20;95900.03;;;21.18;55.47
3096;BME280;1558;42.700;23.360;2022-11-03T08:23:49;95903.72;;;21.43;54.41
3096;BME280;1558;42.700;23.360;2022-11-03T08:26:17;95904.19;;;21.63;54.13
3096;BME280;1558;42.700;23.360;2022-11-03T08:28:45;95897.81;;;21.45;54.42
3096;BME280;1558;42.700;23.360;2022-11-03T08:31:13;95900.25;;;21.61;53.07
3096;BME280;1558;42.700;23.360;2022-11-03T08:33:41;95894.69;;;21.39;53.11
3096;BME280;1558;42.700;23.360;2022-11-03T08:36:09;95850.28;;;21.20;52.84
3096;BME280;1558;42.700;23.360;2022-11-03T08:38:38;95869.63;;;21.58;52.47
3096;BME280;1558;42.700;23.360;2022-11-03T08:41:06;95888.22;;;22.14;51.70
3096;BME280;1558;42.700;23.360;2022-11-03T08:43:34;95887.06;;;22.54;51.41
3096;BME280;1558;42.700;23.360;2022-11-03T08:46:02;95891.78;;;22.61;50.45
3096;BME280;1558;42.700;23.360;2022-11-03T08:48:42;95886.66;;;22.52;50.14
3096;BME280;1558;42.700;23.360;2022-11-03T08:51:10;95884.31;;;22.33;50.43
3096;BME280;1558;42.700;23.360;2022-11-03T08:53:41;95890.22;;;22.63;50.60
3096;BME280;1558;42.700;23.360;2022-11-03T08:56:09;95881.56;;;22.15;50.18
3096;BME280;1558;42.700;23.360;2022-11-03T08:58:41;95901.97;;;22.25;50.62
3096;BME280;1558;42.700;23.360;2022-11-03T09:01:09;95896.47;;;22.43;50.75
3096;BME280;1558;42.700;23.360;2022-11-03T09:03:37;95882.34;;;22.86;49.57
3096;BME280;1558;42.700;23.360;2022-11-03T09:06:06;95877.22;;;22.25;49.69
3096;BME280;1558;42.700;23.360;2022-11-03T09:08:34;95882.75;;;22.46;49.92
3096;BME280;1558;42.700;23.360;2022-11-03T09:11:24;95877.63;;;22.52;49.37
3096;BME280;1558;42.700;23.360;2022-11-03T09:13:51;95881.97;;;22.67;48.81
3096;BME280;1558;42.700;23.360;2022-11-03T09:16:19;95876.84;;;22.55;49.80
3096;BME280;1558;42.700;23.360;2022-11-03T09:18:48;95872.09;;;22.98;48.30
3096;BME280;1558;42.700;23.360;2022-11-03T09:21:15;95858.66;;;23.14;48.70
3096;BME280;1558;42.700;23.360;2022-11-03T09:23:43;95854.72;;;23.18;47.29
3096;BME280;1558;42.700;23.360;2022-11-03T09:26:11;95858.63;;;23.31;47.70
3096;BME280;1558;42.700;23.360;2022-11-03T09:28:41;95850.38;;;23.21;46.82
3096;BME280;1558;42.700;23.360;2022-11-03T09:31:09;95849.66;;;22.99;47.65
3096;BME280;1558;42.700;23.360;2022-11-03T09:33:37;95843.06;;;22.65;47.78
3096;BME280;1558;42.700;23.360;2022-11-03T09:36:05;95842.66;;;22.77;48.10
3096;BME280;1558;42.700;23.360;2022-11-03T09:38:33;95848.09;;;23.05;47.41
3096;BME280;1558;42.700;23.360;2022-11-03T09:41:01;95842.94;;;23.14;47.11
3096;BME280;1558;42.700;23.360;2022-11-03T09:43:46;95824.19;;;22.70;46.92
3096;BME280;1558;42.700;23.360;2022-11-03T09:46:16;95835.13;;;23.06;47.39
3096;BME280;1558;42.700;23.360;2022-11-03T09:48:44;95831.47;;;23.33;47.33
3096;BME280;1558;42.700;23.360;2022-11-03T09:51:17;95827.72;;;23.75;46.07
3096;BME280;1558;42.700;23.360;2022-11-03T09:53:46;95815.19;;;23.64;46.18
3096;BME280;1558;42.700;23.360;2022-11-03T09:56:16;95815.56;;;23.69;45.87
3096;BME280;1558;42.700;23.360;2022-11-03T09:58:47;95825.19;;;23.36;45.96
3096;BME280;1558;42.700;23.360;2022-11-03T10:01:20;95818.19;;;23.04;46.42
3096;BME280;1558;42.700;23.360;2022-11-03T10:03:48;95814.56;;;23.38;46.76
3096;BME280;1558;42.700;23.360;2022-11-03T10:06:17;95813.22;;;23.64;45.57
3096;BME280;1558;42.700;23.360;2022-11-03T10:08:47;95805.13;;;23.29;45.64
3096;BME280;1558;42.700;23.360;2022-11-03T10:11:15;95776.19;;;22.96;45.96
3096;BME280;1558;42.700;23.360;2022-11-03T10:13:45;95788.66;;;23.18;46.03
3096;BME280;1558;42.700;23.360;2022-11-03T10:16:17;95793.94;;;23.64;45.91
3096;BME280;1558;42.700;23.360;2022-11-03T10:18:47;95791.47;;;23.80;44.58
3096;BME280;1558;42.700;23.360;2022-11-03T10:21:17;95785.13;;;23.14;45.30
3096;BME280;1558;42.700;23.360;2022-11-03T10:23:45;95723.94;;;22.89;45.81
3096;BME280;1558;42.700;23.360;2022-11-03T10:26:17;95777.44;;;23.61;45.22
3096;BME280;1558;42.700;23.360;2022-11-03T10:28:59;95779.34;;;23.71;45.10
3096;BME280;1558;42.700;23.360;2022-11-03T10:31:33;95774.09;;;23.90;44.14
3096;BME280;1558;42.700;23.360;2022-11-03T10:34:02;95765.06;;;23.86;44.38
3096;BME280;1558;42.700;23.360;2022-11-03T10:36:31;95766.38;;;23.68;43.93
3096;BME280;1558;42.700;23.360;2022-11-03T10:39:22;95768.91;;;23.37;43.87
3096;BME280;1558;42.700;23.360;2022-11-03T10:41:55;95751.22;;;23.38;43.81
3096;BME280;1558;42.700;23.360;2022-11-03T10:44:25;95746.69;;;23.66;43.21
3096;BME280;1558;42.700;23.360;2022-11-03T10:46:57;95743.25;;;23.51;43.45
3096;BME280;1558;42.700;23.360;2022-11-03T10:49:27;95738.22;;;23.94;43.14
3096;BME280;1558;42.700;23.360;2022-11-03T10:52:04;95733.66;;;24.21;42.54
3096;BME280;1558;42.700;23.360;2022-11-03T10:54:34;95727.94;;;24.46;42.30
3096;BME280;1558;42.700;23.360;2022-11-03T10:57:03;95606.47;;;23.78;41.54
3096;BME280;1558;42.700;23.360;2022-11-03T10:59:33;95721.25;;;24.43;40.92
3096;BME280;1558;42.700;23.360;2022-11-03T11:02:13;95720.94;;;24.34;41.10
3096;BME280;1558;42.700;23.360;2022-11-03T11:04:42;95709.97;;;24.64;40.75
3096;BME280;1558;42.700;23.360;2022-11-03T11:07:22;95707.63;;;24.97;39.54
3096;BME280;1558;42.700;23.360;2022-11-03T11:09:52;95694.94;;;25.03;38.69
3096;BME280;1558;42.700;23.360;2022-11-03T11:12:21;95712.31;;;25.00;38.57
3096;BME280;1558;42.700;23.360;2022-11-03T11:14:55;95703.59;;;25.05;38.56
3096;BME280;1558;42.700;23.360;2022-11-03T11:17:40;95708.91;;;25.19;37.92
3096;BME280;1558;42.700;23.360;2022-11-03T11:20:41;95695.84;;;24.93;37.42
3096;BME280;1558;42.700;23.360;2022-11-03T11:26:30;95697.81;;;25.22;38.27
3096;BME280;1558;42.700;23.360;2022-11-03T11:38:56;95612.97;;;24.96;36.85
3096;BME280;1558;42.700;23.360;2022-11-03T11:44:45;95654.94;;;25.41;36.83
3096;BME280;1558;42.700;23.360;2022-11-03T11:47:28;95664.69;;;25.49;36.79
3096;BME280;1558;42.700;23.360;2022-11-03T11:50:15;95660.28;;;25.25;36.26
3096;BME280;1558;42.700;23.360;2022-11-03T11:52:46;95655.69;;;25.45;36.57
3096;BME280;1558;42.700;23.360;2022-11-03T11:55:18;95644.31;;;25.63;36.23
3096;BME280;1558;42.700;23.360;2022-11-03T11:57:47;95653.06;;;25.61;36.59
3096;BME280;1558;42.700;23.360;2022-11-03T12:00:20;95641.09;;;25.68;35.84
3096;BME280;1558;42.700;23.360;2022-11-03T12:02:49;95627.03;;;25.32;35.69
3096;BME280;1558;42.700;23.360;2022-11-03T12:05:20;95595.09;;;25.31;35.83
3096;BME280;1558;42.700;23.360;2022-11-03T12:07:48;95616.22;;;25.68;35.45
3096;BME280;1558;42.700;23.360;2022-11-03T12:10:20;95637.25;;;25.62;35.31
3096;BME280;1558;42.700;23.360;2022-11-03T12:12:49;95624.75;;;25.53;34.79
3096;BME280;1558;42.700;23.360;2022-11-03T12:15:48;95624.06;;;25.46;35.40
3096;BME280;1558;42.700;23.360;2022-11-03T12:18:30;95613.88;;;25.66;34.94
3096;BME280;1558;42.700;23.360;2022-11-03T12:21:06;95602.97;;;25.32;34.29
3096;BME280;1558;42.700;23.360;2022-11-03T12:23:37;95611.03;;;25.46;34.33
3096;BME280;1558;42.700;23.360;2022-11-03T12:26:38;95609.38;;;25.76;34.57
3096;BME280;1558;42.700;23.360;2022-11-03T12:29:05;95602.44;;;26.10;34.13
3096;BME280;1558;42.700;23.360;2022-11-03T12:31:33;95606.19;;;26.20;33.77
3096;BME280;1558;42.700;23.360;2022-11-03T12:34:02;95585.84;;;26.10;33.60
3096;BME280;1558;42.700;23.360;2022-11-03T12:36:30;95592.81;;;26.18;33.74
3096;BME280;1558;42.700;23.360;2022-11-03T12:38:58;95593.72;;;26.12;34.04
3096;BME280;1558;42.700;23.360;2022-11-03T12:41:27;95586.72;;;26.04;33.71
3096;BME280;1558;42.700;23.360;2022-11-03T12:43:55;95593.13;;;25.78;34.05
3096;BME280;1558;42.700;23.360;2022-11-03T12:46:23;95588.53;;;25.71;34.08
3096;BME280;1558;42.700;23.360;2022-11-03T12:48:51;95591.72;;;25.70;33.88
3096;BME280;1558;42.700;23.360;2022-11-03T12:51:21;95553.53;;;25.15;34.25
3096;BME280;1558;42.700;23.360;2022-11-03T12:53:49;95584.44;;;25.29;34.47
3096;BME280;1558;42.700;23.360;2022-11-03T12:56:17;95567.50;;;25.04;34.21
3096;BME280;1558;42.700;23.360;2022-11-03T12:58:47;95585.09;;;25.14;34.97
3096;BME280;1558;42.700;23.360;2022-11-03T13:01:14;95573.72;;;25.35;34.48
3096;BME280;1558;42.700;23.360;2022-11-03T13:03:43;95574.16;;;25.33;34.36
3096;BME280;1558;42.700;23.360;2022-11-03T13:06:10;95557.94;;;25.35;34.34
3096;BME280;1558;42.700;23.360;2022-11-03T13:08:40;95573.72;;;25.35;34.09
3096;BME280;1558;42.700;23.360;2022-11-03T13:11:12;95559.53;;;25.33;33.85
3096;BME280;1558;42.700;23.360;2022-11-03T13:13:55;95549.81;;;25.25;33.87
3096;BME280;1558;42.700;23.360;2022-11-03T13:16:23;95558.09;;;25.25;33.84
3096;BME280;1558;42.700;23.360;2022-11-03T13:18:51;95574.44;;;24.89;33.91
3096;BME280;1558;42.700;23.360;2022-11-03T13:21:19;95571.84;;;24.78;34.06
3096;BME280;1558;42.700;23.360;2022-11-03T13:23:47;95556.34;;;24.84;34.57
3096;BME280;1558;42.700;23.360;2022-11-03T13:26:14;95561.53;;;24.82;34.81
3096;BME280;1558;42.700;23.360;2022-11-03T13:28:43;95560.59;;;24.62;34.22
3096;BME280;1558;42.700;23.360;2022-11-03T13:31:12;95554.16;;;24.42;35.20
3096;BME280;1558;42.700;23.360;2022-11-03T13:33:40;95558.22;;;24.34;35.14
3096;BME280;1558;42.700;23.360;2022-11-03T13:36:41;95547.00;;;24.18;35.57
3096;BME280;1558;42.700;23.360;2022-11-03T13:39:09;95540.25;;;23.89;35.72
3096;BME280;1558;42.700;23.360;2022-11-03T13:41:38;95548.09;;;23.90;36.21
3096;BME280;1558;42.700;23.360;2022-11-03T13:44:06;95549.31;;;23.86;36.23
3096;BME280;1558;42.700;23.360;2022-11-03T13:46:35;95532.56;;;23.70;36.31
3096;BME280;1558;42.700;23.360;2022-11-03T13:49:03;95517.75;;;23.56;36.36
3096;BME280;1558;42.700;23.360;2022-11-03T13:51:51;95555.34;;;23.74;36.05
3096;BME280;1558;42.700;23.360;2022-11-03T13:54:19;95546.88;;;23.54;36.18